Time;durP1;ratioP1;P1;durP2;ratioP2;P2;SDS_P1;SDS_P2;PMS_P1;PMS_P2;Temp;Humidity;BMP_temperature;BMP_pressure;BME280_temperature;BME280_humidity;BME280_pressure;Samples;Min_cycle;Max_cycle;Signal;HPM_P1;HPM_P2
2024/01/30 00:00:37;;;;;;;7.30;6.45;;;;;;;7.16;100.00;102420.03;4983000;28;20111;-65
2024/01/30 00:03:03;;;;;;;7.50;6.60;;;;;;;7.10;100.00;102409.31;4969603;28;20033;-65
2024/01/30 00:05:28;;;;;;;8.60;6.78;;;;;;;7.04;100.00;102412.31;4987826;28;20356;-65
2024/01/30 00:07:53;;;;;;;9.13;6.93;;;;;;;6.97;100.00;102418.72;4988694;28;20026;-65
2024/01/30 00:10:19;;;;;;;7.65;6.65;;;;;;;6.92;100.00;102404.63;4976750;28;20122;-65
2024/01/30 00:12:44;;;;;;;8.27;7.10;;;;;;;6.88;100.00;102412.00;4999624;28;20033;-65
2024/01/30 00:15:10;;;;;;;6.85;5.95;;;;;;;6.85;100.00;102407.53;4988577;28;20540;-65
2024/01/30 00:17:36;;;;;;;7.47;6.60;;;;;;;6.83;100.00;102403.94;4975003;28;20057;-65
2024/01/30 00:20:05;;;;;;;7.50;6.70;;;;;;;6.78;100.00;102405.28;4977031;28;20022;-65
2024/01/30 00:22:31;;;;;;;8.20;7.30;;;;;;;6.74;100.00;102409.31;4988419;28;20399;-65
2024/01/30 00:24:56;;;;;;;8.38;6.32;;;;;;;6.71;100.00;102403.97;4988619;28;20026;-65
2024/01/30 00:27:21;;;;;;;8.52;7.70;;;;;;;6.67;100.00;102408.00;4988760;28;20041;-65
2024/01/30 00:29:46;;;;;;;8.10;6.72;;;;;;;6.68;100.00;102395.97;4988272;28;20141;-65
2024/01/30 00:32:12;;;;;;;7.63;6.82;;;;;;;6.69;100.00;102405.53;4988204;28;20394;-65
2024/01/30 00:34:37;;;;;;;7.80;6.38;;;;;;;6.65;100.00;102396.69;4974972;28;20037;-65
2024/01/30 00:37:02;;;;;;;8.80;7.35;;;;;;;6.62;100.00;102400.72;4987686;28;20037;-65
2024/01/30 00:39:28;;;;;;;10.20;7.40;;;;;;;6.57;100.00;102400.34;4988438;28;20026;-65
2024/01/30 00:41:53;;;;;;;9.88;7.53;;;;;;;6.52;100.00;102391.38;4975215;28;20033;-65
2024/01/30 00:44:18;;;;;;;9.32;7.22;;;;;;;6.48;100.00;102396.31;4988256;28;20446;-66
2024/01/30 00:46:44;;;;;;;8.77;7.10;;;;;;;6.45;100.00;102396.09;4988271;28;20030;-65
2024/01/30 00:49:10;;;;;;;8.93;7.85;;;;;;;6.41;100.00;102388.91;4981580;28;20414;-65
2024/01/30 00:51:36;;;;;;;9.27;7.72;;;;;;;6.38;100.00;102388.69;4982419;28;20042;-65
2024/01/30 00:54:01;;;;;;;9.57;7.65;;;;;;;6.36;100.00;102395.41;4983739;28;20034;-65
2024/01/30 00:56:27;;;;;;;8.02;7.07;;;;;;;6.32;100.00;102389.13;5008751;28;20517;-65
2024/01/30 00:58:52;;;;;;;7.85;7.07;;;;;;;6.29;100.00;102388.91;4989434;28;20113;-65
2024/01/30 01:01:17;;;;;;;9.57;7.75;;;;;;;6.27;100.00;102384.41;4988747;28;20478;-65
2024/01/30 01:03:43;;;;;;;10.80;8.10;;;;;;;6.24;100.00;102385.09;4987604;28;20201;-65
2024/01/30 01:06:08;;;;;;;11.18;7.85;;;;;;;6.21;100.00;102382.28;4976563;28;20078;-65
2024/01/30 01:08:34;;;;;;;9.65;7.18;;;;;;;6.19;100.00;102392.47;4974298;28;20303;-65
2024/01/30 01:10:59;;;;;;;8.82;6.90;;;;;;;6.17;100.00;102383.72;4987879;28;20038;-65
2024/01/30 01:13:24;;;;;;;8.50;7.60;;;;;;;6.16;100.00;102388.75;4969810;28;20027;-65
2024/01/30 01:15:49;;;;;;;9.93;7.60;;;;;;;6.12;100.00;102383.41;4979793;28;20042;-65
2024/01/30 01:18:15;;;;;;;10.18;7.53;;;;;;;6.10;100.00;102377.22;4976416;28;20100;-65
2024/01/30 01:20:41;;;;;;;9.85;7.90;;;;;;;6.09;100.00;102374.53;4988200;28;20386;-65
2024/01/30 01:23:06;;;;;;;8.75;7.30;;;;;;;6.08;100.00;102375.34;4973946;28;20030;-65
2024/01/30 01:25:31;;;;;;;8.05;6.78;;;;;;;6.04;100.00;102375.84;4987511;28;20029;-65
2024/01/30 01:27:57;;;;;;;9.13;7.35;;;;;;;6.03;100.00;102379.22;4981723;28;20035;-65
2024/01/30 01:30:22;;;;;;;8.27;7.47;;;;;;;6.00;100.00;102378.19;4979375;28;20060;-65
2024/01/30 01:32:54;;;;;;;8.93;7.40;;;;;;;5.98;100.00;102382.31;4969022;28;20031;-65
2024/01/30 01:35:27;;;;;;;10.30;7.30;;;;;;;5.99;100.00;102384.09;4981163;28;20470;-65
2024/01/30 01:37:56;;;;;;;9.93;7.97;;;;;;;5.97;100.00;102375.38;4981675;28;20527;-65
2024/01/30 01:40:26;;;;;;;9.05;8.02;;;;;;;5.97;100.00;102375.38;4970921;28;20031;-65
2024/01/30 01:42:52;;;;;;;9.40;7.25;;;;;;;5.96;100.00;102365.88;4969899;28;20375;-65
2024/01/30 01:45:18;;;;;;;8.73;7.72;;;;;;;5.97;100.00;102365.06;4983636;28;20025;-65
2024/01/30 01:47:45;;;;;;;9.35;7.45;;;;;;;6.00;100.00;102365.31;4987526;28;20030;-65
2024/01/30 01:50:12;;;;;;;8.00;7.18;;;;;;;6.07;100.00;102364.13;4985272;28;20773;-65
2024/01/30 01:52:40;;;;;;;8.73;7.28;;;;;;;6.09;100.00;102353.94;4977389;28;20030;-65
2024/01/30 01:55:06;;;;;;;8.65;7.63;;;;;;;6.15;100.00;102362.16;4987953;28;20030;-65
2024/01/30 01:57:31;;;;;;;10.00;7.68;;;;;;;6.20;100.00;102357.34;4998375;28;20025;-65
2024/01/30 01:59:58;;;;;;;7.20;6.50;;;;;;;6.24;100.00;102349.94;4974027;28;20134;-65
2024/01/30 02:02:25;;;;;;;8.82;6.70;;;;;;;6.27;100.00;102356.09;4975444;28;20104;-65
2024/01/30 02:04:50;;;;;;;9.80;7.60;;;;;;;6.32;100.00;102359.91;4985515;28;20491;-65
2024/01/30 02:07:16;;;;;;;8.10;6.95;;;;;;;6.35;100.00;102353.31;4987532;28;20135;-65
2024/01/30 02:09:41;;;;;;;8.75;6.90;;;;;;;6.35;100.00;102349.84;4976566;28;20054;-65
2024/01/30 02:12:06;;;;;;;6.35;5.63;;;;;;;6.38;100.00;102342.34;4977559;28;20030;-65
2024/01/30 02:14:32;;;;;;;11.35;7.65;;;;;;;6.37;100.00;102337.97;4975045;28;20035;-65
2024/01/30 02:16:57;;;;;;;7.55;6.70;;;;;;;6.35;100.00;102343.00;4973697;28;20486;-65
2024/01/30 02:19:22;;;;;;;6.95;6.25;;;;;;;6.34;100.00;102350.63;4987123;28;20033;-65
2024/01/30 02:21:48;;;;;;;7.35;6.50;;;;;;;6.35;100.00;102352.44;4981451;28;20015;-65
2024/01/30 02:24:13;;;;;;;7.90;6.45;;;;;;;6.30;100.00;102348.59;4973957;28;20041;-65
2024/01/30 02:26:38;;;;;;;8.43;6.90;;;;;;;6.29;100.00;102346.81;4989663;28;20406;-65
2024/01/30 02:29:04;;;;;;;9.27;6.82;;;;;;;6.29;100.00;102347.72;4996816;28;20022;-65
2024/01/30 02:31:29;;;;;;;8.82;7.68;;;;;;;6.26;100.00;102342.31;4995234;28;20034;-65
2024/01/30 02:33:54;;;;;;;8.70;6.78;;;;;;;6.23;100.00;102352.41;4986040;28;20032;-65
2024/01/30 02:36:19;;;;;;;7.88;7.00;;;;;;;6.22;100.00;102348.91;4985291;28;20038;-65
2024/01/30 02:38:46;;;;;;;9.05;7.53;;;;;;;6.22;100.00;102348.91;4990897;28;20019;-65
2024/01/30 02:41:11;;;;;;;8.23;7.43;;;;;;;6.19;100.00;102340.97;4978705;28;20254;-65
2024/01/30 02:43:36;;;;;;;7.82;7.03;;;;;;;6.17;100.00;102344.25;4997711;28;20552;-65
2024/01/30 02:46:02;;;;;;;9.55;7.15;;;;;;;6.16;100.00;102339.84;4989534;28;20022;-65
2024/01/30 02:48:27;;;;;;;7.60;6.72;;;;;;;6.15;100.00;102344.13;4985115;28;20053;-65
2024/01/30 02:50:52;;;;;;;8.85;7.07;;;;;;;6.15;100.00;102328.69;4996654;28;20293;-65
2024/01/30 02:53:18;;;;;;;8.90;7.18;;;;;;;6.13;100.00;102335.38;4991447;28;20386;-65
2024/01/30 02:55:43;;;;;;;8.77;6.85;;;;;;;6.15;100.00;102333.84;4977100;28;20038;-65
2024/01/30 02:58:08;;;;;;;10.60;6.95;;;;;;;6.15;100.00;102338.97;4994282;28;20597;-65
2024/01/30 03:00:34;;;;;;;9.93;7.25;;;;;;;6.15;100.00;102338.06;4976373;28;20026;-65
2024/01/30 03:02:59;;;;;;;8.02;7.22;;;;;;;6.12;100.00;102331.91;4983708;28;20105;-65
2024/01/30 03:05:24;;;;;;;7.80;6.82;;;;;;;6.12;100.00;102341.31;4990317;28;20025;-65
2024/01/30 03:07:50;;;;;;;8.95;7.43;;;;;;;6.11;100.00;102336.94;4978201;28;20048;-65
2024/01/30 03:10:15;;;;;;;8.15;7.35;;;;;;;6.13;100.00;102332.81;4988455;28;20513;-65
2024/01/30 03:12:40;;;;;;;8.48;7.18;;;;;;;6.11;100.00;102327.56;4988639;28;20030;-65
2024/01/30 03:15:06;;;;;;;8.38;6.60;;;;;;;6.18;100.00;102326.31;4991381;28;20022;-65
2024/01/30 03:17:32;;;;;;;7.63;6.78;;;;;;;6.13;100.00;102319.94;4991881;28;20022;-65
2024/01/30 03:19:57;;;;;;;7.78;6.88;;;;;;;6.16;100.00;102320.16;4985937;28;20033;-65
2024/01/30 03:22:22;;;;;;;8.45;7.20;;;;;;;6.14;100.00;102311.44;4981382;28;20403;-65
2024/01/30 03:24:48;;;;;;;8.07;6.63;;;;;;;6.13;100.00;102304.50;4990169;28;20026;-66
2024/01/30 03:27:13;;;;;;;9.38;7.47;;;;;;;6.15;100.00;102308.09;4990294;28;20038;-65
2024/01/30 03:29:38;;;;;;;9.00;6.63;;;;;;;6.11;100.00;102296.66;4984985;28;20098;-66
2024/01/30 03:32:04;;;;;;;9.35;7.30;;;;;;;6.10;100.00;102304.25;4980893;28;20500;-65
2024/01/30 03:34:29;;;;;;;9.63;7.38;;;;;;;6.09;100.00;102303.38;4989643;28;20034;-65
2024/01/30 03:36:55;;;;;;;7.32;6.60;;;;;;;6.08;100.00;102311.00;4989926;28;20030;-65
2024/01/30 03:39:20;;;;;;;9.15;6.78;;;;;;;6.06;100.00;102303.13;4989620;28;20501;-64
2024/01/30 03:41:45;;;;;;;10.30;6.35;;;;;;;6.03;100.00;102300.31;4978320;28;20037;-64
2024/01/30 03:44:11;;;;;;;10.05;6.75;;;;;;;6.03;100.00;102304.56;4987701;28;20029;-64
2024/01/30 03:46:36;;;;;;;7.65;6.95;;;;;;;6.03;100.00;102309.72;5000208;28;20100;-64
2024/01/30 03:49:02;;;;;;;8.60;6.78;;;;;;;6.01;100.00;102305.34;4989568;28;20561;-66
2024/01/30 03:51:27;;;;;;;9.25;6.07;;;;;;;6.04;100.00;102306.34;4989198;28;20040;-64
2024/01/30 03:53:53;;;;;;;7.05;6.38;;;;;;;6.12;100.00;102302.69;4987708;28;20132;-66
2024/01/30 03:56:18;;;;;;;9.27;7.70;;;;;;;6.22;100.00;102310.31;4999948;28;20034;-66
2024/01/30 03:58:43;;;;;;;8.32;7.50;;;;;;;6.33;100.00;102307.66;4989507;28;20129;-66
2024/01/30 04:01:13;;;;;;;9.18;7.35;;;;;;;6.41;100.00;102308.19;4989620;28;20525;-66
2024/01/30 04:03:39;;;;;;;7.32;6.55;;;;;;;6.54;100.00;102312.56;4988620;28;20026;-66
2024/01/30 04:06:04;;;;;;;7.55;6.65;;;;;;;6.64;100.00;102309.84;4989461;28;20030;-66
2024/01/30 04:08:29;;;;;;;7.78;6.50;;;;;;;6.69;100.00;102303.34;4988858;28;20030;-66
2024/01/30 04:10:55;;;;;;;8.18;6.10;;;;;;;6.79;100.00;102314.31;4989289;28;20099;-66
2024/01/30 04:13:20;;;;;;;9.30;6.53;;;;;;;6.83;100.00;102306.03;4992783;28;20049;-66
2024/01/30 04:15:46;;;;;;;8.95;5.72;;;;;;;6.88;100.00;102304.66;4995812;28;20437;-66
2024/01/30 04:18:11;;;;;;;6.60;6.00;;;;;;;6.91;100.00;102310.03;5000726;28;20461;-66
2024/01/30 04:20:36;;;;;;;6.35;5.75;;;;;;;6.99;100.00;102301.94;4988089;28;20117;-66
2024/01/30 04:23:01;;;;;;;7.03;5.90;;;;;;;7.05;100.00;102298.09;4987838;28;20393;-66
2024/01/30 04:25:27;;;;;;;9.23;6.10;;;;;;;7.11;100.00;102299.31;4988622;28;20459;-66
2024/01/30 04:27:52;;;;;;;6.80;5.88;;;;;;;7.15;100.00;102293.59;5001158;28;20026;-66
2024/01/30 04:30:18;;;;;;;6.57;5.88;;;;;;;7.18;100.00;102302.44;4976382;28;20454;-64
2024/01/30 04:32:43;;;;;;;6.90;5.57;;;;;;;7.26;100.00;102299.50;4982785;28;20034;-66
2024/01/30 04:35:09;;;;;;;6.78;5.20;;;;;;;7.32;100.00;102293.06;4992022;28;20026;-66
2024/01/30 04:37:34;;;;;;;6.03;4.78;;;;;;;7.36;100.00;102294.19;4988180;28;20542;-66
2024/01/30 04:39:59;;;;;;;7.07;5.20;;;;;;;7.44;100.00;102290.47;4978920;28;20037;-66
2024/01/30 04:42:25;;;;;;;4.93;4.43;;;;;;;7.44;100.00;102280.16;4969247;28;20034;-66
2024/01/30 04:44:50;;;;;;;8.43;5.95;;;;;;;7.41;100.00;102274.75;4979017;28;20467;-66
2024/01/30 04:47:16;;;;;;;7.07;5.00;;;;;;;7.43;100.00;102275.75;4985389;28;20023;-66
2024/01/30 04:49:41;;;;;;;6.13;5.32;;;;;;;7.48;100.00;102275.19;4969372;28;20382;-66
2024/01/30 04:52:08;;;;;;;8.73;5.82;;;;;;;7.53;100.00;102274.72;4971401;28;20481;-66
2024/01/30 04:54:34;;;;;;;6.53;5.43;;;;;;;7.56;100.00;102272.31;4993231;28;20030;-66
2024/01/30 04:57:00;;;;;;;7.70;5.03;;;;;;;7.52;100.00;102262.59;4979415;28;20054;-66
2024/01/30 04:59:25;;;;;;;7.45;5.65;;;;;;;7.56;100.00;102255.94;4987816;28;20443;-66
2024/01/30 05:01:50;;;;;;;5.75;5.03;;;;;;;7.53;100.00;102260.91;4975562;28;20551;-66
2024/01/30 05:04:16;;;;;;;6.03;5.30;;;;;;;7.51;100.00;102267.66;4988021;28;20092;-66
2024/01/30 05:06:41;;;;;;;7.85;5.47;;;;;;;7.45;100.00;102265.53;4991573;28;20030;-66
2024/01/30 05:09:07;;;;;;;6.53;5.32;;;;;;;7.51;100.00;102263.38;4987964;28;20030;-66
2024/01/30 05:11:38;;;;;;;7.78;6.47;;;;;;;7.53;100.00;102272.13;4983828;28;20026;-66
2024/01/30 05:14:03;;;;;;;6.25;4.93;;;;;;;7.56;100.00;102276.59;4988194;28;20026;-66
2024/01/30 05:16:28;;;;;;;6.38;5.40;;;;;;;7.60;100.00;102273.44;4975700;28;20032;-66
2024/01/30 05:18:54;;;;;;;7.47;5.68;;;;;;;7.63;100.00;102280.47;4988014;28;20375;-66
2024/01/30 05:21:19;;;;;;;6.03;4.75;;;;;;;7.62;100.00;102271.84;4987838;28;20037;-66
2024/01/30 05:23:44;;;;;;;7.35;5.63;;;;;;;7.58;100.00;102277.59;4988057;28;20501;-65
2024/01/30 05:26:09;;;;;;;6.50;5.20;;;;;;;7.64;100.00;102282.28;4975664;28;20406;-66
2024/01/30 05:28:35;;;;;;;5.32;4.80;;;;;;;7.65;100.00;102279.78;4988895;28;20030;-66
2024/01/30 05:31:00;;;;;;;6.20;5.30;;;;;;;7.68;100.00;102274.81;4986997;28;20493;-66
2024/01/30 05:33:25;;;;;;;5.20;4.70;;;;;;;7.69;100.00;102274.06;4976336;28;20433;-66
2024/01/30 05:35:54;;;;;;;8.35;5.68;;;;;;;7.71;100.00;102270.66;4992650;28;20026;-66
2024/01/30 05:38:19;;;;;;;5.82;5.03;;;;;;;7.69;100.00;102270.56;4977759;28;20026;-66
2024/01/30 05:40:44;;;;;;;7.35;4.90;;;;;;;7.64;100.00;102275.44;4977869;28;20036;-66
2024/01/30 05:43:10;;;;;;;7.38;4.75;;;;;;;7.69;100.00;102279.22;4987495;28;20117;-66
2024/01/30 05:45:35;;;;;;;8.05;6.00;;;;;;;7.72;100.00;102273.34;4985920;28;20026;-66
2024/01/30 05:48:01;;;;;;;6.63;5.40;;;;;;;7.76;100.00;102271.88;4986984;28;20065;-65
2024/01/30 05:50:26;;;;;;;7.25;4.38;;;;;;;7.77;100.00;102276.25;4986286;28;20034;-66
2024/01/30 05:52:52;;;;;;;7.78;5.55;;;;;;;7.78;100.00;102284.09;4987285;28;20394;-66
2024/01/30 05:55:17;;;;;;;6.82;5.40;;;;;;;7.73;100.00;102284.56;4995847;28;20379;-65
2024/01/30 05:57:43;;;;;;;5.68;5.15;;;;;;;7.77;100.00;102281.41;4987615;28;20026;-66
2024/01/30 06:00:08;;;;;;;6.22;5.10;;;;;;;7.81;100.00;102283.38;4985381;28;20584;-66
2024/01/30 06:02:34;;;;;;;7.07;5.25;;;;;;;7.79;100.00;102285.88;4986745;28;20394;-66
2024/01/30 06:04:59;;;;;;;7.22;5.10;;;;;;;7.80;100.00;102284.19;4986600;28;20030;-65
2024/01/30 06:07:24;;;;;;;5.50;4.85;;;;;;;7.84;100.00;102278.47;4983189;28;20249;-65
2024/01/30 06:09:50;;;;;;;5.40;4.85;;;;;;;7.88;100.00;102270.09;4993513;28;20088;-66
2024/01/30 06:12:15;;;;;;;6.90;5.50;;;;;;;7.87;100.00;102276.06;4991429;28;20026;-66
2024/01/30 06:14:42;;;;;;;8.77;6.03;;;;;;;7.88;100.00;102285.59;4982540;28;20046;-66
2024/01/30 06:17:08;;;;;;;6.65;4.80;;;;;;;7.93;100.00;102276.47;4984227;28;20034;-66
2024/01/30 06:19:33;;;;;;;7.88;5.20;;;;;;;7.92;100.00;102279.84;4989152;28;20072;-66
2024/01/30 06:21:58;;;;;;;6.30;5.28;;;;;;;7.95;100.00;102286.00;4979759;28;20367;-66
2024/01/30 06:24:24;;;;;;;6.82;4.97;;;;;;;8.02;100.00;102290.78;4987459;28;20572;-66
2024/01/30 06:26:49;;;;;;;5.97;4.75;;;;;;;8.05;100.00;102283.22;4986868;28;20073;-66
2024/01/30 06:29:14;;;;;;;6.80;5.00;;;;;;;8.08;100.00;102283.41;4986661;28;20030;-66
2024/01/30 06:31:43;;;;;;;5.38;4.78;;;;;;;8.13;100.00;102286.31;4987034;28;20030;-65
2024/01/30 06:34:11;;;;;;;7.60;5.45;;;;;;;8.11;100.00;102288.78;4974998;28;20030;-66
2024/01/30 06:36:37;;;;;;;5.93;4.95;;;;;;;8.14;100.00;102285.53;4996241;28;20366;-66
2024/01/30 06:39:03;;;;;;;5.82;4.88;;;;;;;8.16;100.00;102297.75;4977954;28;20122;-66
2024/01/30 06:41:29;;;;;;;6.57;4.55;;;;;;;8.17;100.00;102290.88;4973947;28;20710;-66
2024/01/30 06:43:55;;;;;;;7.63;4.90;;;;;;;8.21;100.00;102298.03;4988196;28;20030;-66
2024/01/30 06:46:20;;;;;;;5.45;4.63;;;;;;;8.16;100.00;102302.91;4982684;28;20378;-66
2024/01/30 06:48:45;;;;;;;5.43;4.80;;;;;;;8.16;100.00;102302.00;4979189;28;20039;-66
2024/01/30 06:51:12;;;;;;;5.88;5.15;;;;;;;8.20;100.00;102297.94;4982448;28;20046;-66
2024/01/30 06:53:37;;;;;;;5.22;4.07;;;;;;;8.18;100.00;102297.84;4987356;28;20485;-66
2024/01/30 06:56:02;;;;;;;5.22;4.70;;;;;;;8.21;100.00;102303.19;4998659;28;20034;-66
2024/01/30 06:58:28;;;;;;;7.82;5.03;;;;;;;8.23;100.00;102296.47;4974451;28;20362;-66
2024/01/30 07:00:53;;;;;;;5.50;4.55;;;;;;;8.27;100.00;102311.34;4983284;28;20034;-66
2024/01/30 07:03:19;;;;;;;5.93;5.32;;;;;;;8.31;100.00;102321.88;4984556;28;20030;-66
2024/01/30 07:05:44;;;;;;;6.32;4.93;;;;;;;8.33;100.00;102330.63;4979116;28;20037;-66
2024/01/30 07:08:09;;;;;;;9.70;5.60;;;;;;;8.34;100.00;102338.47;4991429;28;20649;-66
2024/01/30 07:10:34;;;;;;;6.22;4.97;;;;;;;8.29;100.00;102339.88;4980730;28;20038;-66
2024/01/30 07:13:05;;;;;;;7.07;4.85;;;;;;;8.35;100.00;102336.78;4982209;28;20045;-66
2024/01/30 07:15:30;;;;;;;6.28;4.90;;;;;;;8.31;100.00;102340.84;4974929;28;20145;-66
2024/01/30 07:17:55;;;;;;;6.25;5.03;;;;;;;8.32;100.00;102340.06;4980838;28;20109;-66
2024/01/30 07:20:20;;;;;;;5.13;4.30;;;;;;;8.31;100.00;102338.25;4989051;28;20490;-66
2024/01/30 07:22:46;;;;;;;6.57;4.78;;;;;;;8.32;100.00;102345.22;4986178;28;20323;-65
2024/01/30 07:25:12;;;;;;;6.15;4.78;;;;;;;8.35;100.00;102341.94;4983165;28;20033;-66
2024/01/30 07:27:37;;;;;;;6.93;5.07;;;;;;;8.34;100.00;102355.66;4982990;28;20200;-66
2024/01/30 07:30:03;;;;;;;6.25;4.80;;;;;;;8.32;100.00;102352.97;4982542;28;20436;-66
2024/01/30 07:32:28;;;;;;;8.85;4.90;;;;;;;8.33;100.00;102354.75;4984658;28;20380;-66
2024/01/30 07:34:53;;;;;;;4.70;4.30;;;;;;;8.38;100.00;102345.63;4993128;28;20026;-65
2024/01/30 07:37:19;;;;;;;7.40;4.72;;;;;;;8.42;100.00;102346.72;4983146;28;20077;-66
2024/01/30 07:39:44;;;;;;;5.82;5.18;;;;;;;8.41;100.00;102351.00;4974718;28;20110;-66
2024/01/30 07:42:10;;;;;;;6.35;4.80;;;;;;;8.43;100.00;102356.28;4981483;28;20073;-66
2024/01/30 07:44:35;;;;;;;6.35;4.80;;;;;;;8.44;100.00;102364.91;4986829;28;20150;-66
2024/01/30 07:47:00;;;;;;;7.38;5.18;;;;;;;8.43;100.00;102363.13;4979680;28;20454;-66
2024/01/30 07:49:26;;;;;;;5.43;4.85;;;;;;;8.42;100.00;102364.78;4987740;28;20058;-66
2024/01/30 07:51:51;;;;;;;6.45;5.47;;;;;;;8.44;100.00;102365.78;4986458;28;20137;-66
2024/01/30 07:54:17;;;;;;;8.45;5.15;;;;;;;8.47;100.00;102365.13;4985200;28;20439;-66
2024/01/30 07:56:42;;;;;;;6.80;5.40;;;;;;;8.46;100.00;102364.22;4978213;28;20034;-65
2024/01/30 07:59:11;;;;;;;6.32;5.15;;;;;;;8.47;100.00;102370.28;4977723;28;20109;-65
2024/01/30 08:01:37;;;;;;;7.00;5.60;;;;;;;8.51;100.00;102374.84;4987645;28;20034;-66
2024/01/30 08:04:02;;;;;;;6.57;5.38;;;;;;;8.52;100.00;102374.97;4982474;28;20491;-66
2024/01/30 08:06:27;;;;;;;10.00;5.25;;;;;;;8.49;100.00;102381.63;4976821;28;20035;-66
2024/01/30 08:08:53;;;;;;;6.93;5.07;;;;;;;8.54;100.00;102380.22;4984825;28;20038;-66
2024/01/30 08:11:20;;;;;;;9.40;5.93;;;;;;;8.52;100.00;102384.41;4986199;28;20473;-66
2024/01/30 08:13:45;;;;;;;8.27;5.38;;;;;;;8.56;100.00;102389.00;4980015;28;20130;-66
2024/01/30 08:16:11;;;;;;;6.53;5.10;;;;;;;8.62;100.00;102386.81;4988789;28;20089;-66
2024/01/30 08:18:36;;;;;;;8.38;5.53;;;;;;;8.61;100.00;102389.28;4988083;28;20030;-66
2024/01/30 08:21:01;;;;;;;5.70;5.05;;;;;;;8.62;100.00;102384.22;4988454;28;20030;-66
2024/01/30 08:23:26;;;;;;;7.90;5.40;;;;;;;8.65;100.00;102388.72;4980566;28;20049;-66
2024/01/30 08:25:52;;;;;;;6.88;5.57;;;;;;;8.64;100.00;102389.50;4978453;28;20026;-66
2024/01/30 08:28:17;;;;;;;6.43;5.22;;;;;;;8.67;100.00;102381.06;4988231;28;20022;-66
2024/01/30 08:30:42;;;;;;;6.47;5.43;;;;;;;8.68;100.00;102390.59;4988075;28;20427;-66
2024/01/30 08:33:07;;;;;;;5.97;5.43;;;;;;;8.71;100.00;102398.53;4974999;28;20030;-66
2024/01/30 08:35:33;;;;;;;6.50;5.15;;;;;;;8.72;100.00;102393.47;4977641;28;20122;-66
2024/01/30 08:37:59;;;;;;;10.52;5.78;;;;;;;8.78;100.00;102392.97;4978933;28;20030;-65
2024/01/30 08:40:24;;;;;;;6.90;5.68;;;;;;;8.75;100.00;102380.75;4978470;28;20114;-66
2024/01/30 08:42:49;;;;;;;8.35;6.60;;;;;;;8.72;100.00;102392.56;4984927;28;20076;-66
2024/01/30 08:45:14;;;;;;;7.70;5.72;;;;;;;8.78;100.00;102395.53;4983188;28;20037;-66
2024/01/30 08:47:40;;;;;;;7.28;5.70;;;;;;;8.83;100.00;102399.31;4983506;28;20041;-66
2024/01/30 08:50:06;;;;;;;8.35;5.53;;;;;;;8.87;100.00;102390.97;4977955;28;20058;-66
2024/01/30 08:52:32;;;;;;;8.23;6.18;;;;;;;8.92;100.00;102380.03;4973109;28;20547;-66
2024/01/30 08:54:58;;;;;;;7.60;5.53;;;;;;;8.93;100.00;102387.88;4988925;28;20041;-66
2024/01/30 08:57:23;;;;;;;8.20;5.82;;;;;;;8.97;100.00;102381.22;4981544;28;20285;-66
2024/01/30 08:59:49;;;;;;;7.82;5.38;;;;;;;8.98;100.00;102385.56;4985427;28;20053;-66
2024/01/30 09:02:16;;;;;;;8.10;5.72;;;;;;;9.02;100.00;102385.00;4976077;28;20052;-66
2024/01/30 09:04:41;;;;;;;8.55;5.95;;;;;;;9.04;100.00;102387.66;4973716;28;20495;-66
2024/01/30 09:07:09;;;;;;;8.30;5.63;;;;;;;9.08;100.00;102392.25;4975436;28;20032;-66
2024/01/30 09:09:34;;;;;;;8.15;6.10;;;;;;;9.13;100.00;102391.75;4978830;28;20756;-66
2024/01/30 09:12:04;;;;;;;7.82;5.70;;;;;;;9.13;100.00;102394.34;4976035;28;20034;-66
2024/01/30 09:14:29;;;;;;;5.95;5.32;;;;;;;9.15;100.00;102393.53;4968802;28;20035;-66
2024/01/30 09:16:55;;;;;;;8.60;6.55;;;;;;;9.19;100.00;102395.50;4982693;28;20123;-66
2024/01/30 09:19:20;;;;;;;7.75;5.65;;;;;;;9.25;100.00;102395.88;4981785;28;20248;-66
2024/01/30 09:21:45;;;;;;;7.60;5.80;;;;;;;9.29;100.00;102403.03;4979398;28;20050;-66
2024/01/30 09:24:10;;;;;;;9.90;6.32;;;;;;;9.30;100.00;102414.28;4982122;28;20493;-66
2024/01/30 09:26:36;;;;;;;9.18;6.03;;;;;;;9.35;100.00;102403.41;4977373;28;20096;-66
2024/01/30 09:29:01;;;;;;;8.50;6.07;;;;;;;9.37;100.00;102411.28;4982608;28;20042;-66
2024/01/30 09:31:27;;;;;;;9.65;5.43;;;;;;;9.42;100.00;102407.28;4973773;28;20027;-66
2024/01/30 09:33:53;;;;;;;7.45;5.70;;;;;;;9.41;100.00;102417.56;4978545;28;20522;-66
2024/01/30 09:36:19;;;;;;;7.65;5.82;;;;;;;9.43;100.00;102416.81;4985827;28;20387;-66
2024/01/30 09:38:45;;;;;;;8.25;6.05;;;;;;;9.49;100.00;102411.16;4981346;28;20306;-66
2024/01/30 09:41:13;;;;;;;11.57;6.15;;;;;;;9.53;100.00;102413.13;4983418;28;20030;-66
2024/01/30 09:43:42;;;;;;;9.20;5.57;;;;;;;9.60;100.00;102420.47;4979910;28;20297;-66
2024/01/30 09:46:12;;;;;;;6.32;5.50;;;;;;;9.63;100.00;102419.75;4982310;28;20065;-66
2024/01/30 09:48:39;;;;;;;8.32;5.53;;;;;;;9.64;100.00;102428.41;4976823;28;20085;-66
2024/01/30 09:51:05;;;;;;;7.72;5.82;;;;;;;9.64;100.00;102431.91;4981708;28;20034;-66
2024/01/30 09:53:30;;;;;;;7.30;5.93;;;;;;;9.67;100.00;102438.97;4979786;28;20031;-66
2024/01/30 09:55:57;;;;;;;7.20;5.45;;;;;;;9.72;100.00;102430.69;4987603;28;20101;-66
2024/01/30 09:58:23;;;;;;;9.02;6.13;;;;;;;9.82;100.00;102426.94;4977703;28;20027;-66
2024/01/30 10:00:48;;;;;;;8.35;5.82;;;;;;;9.88;100.00;102441.97;4986628;28;20030;-66
2024/01/30 10:03:14;;;;;;;6.35;5.57;;;;;;;9.94;100.00;102431.06;4984680;28;20037;-66
2024/01/30 10:05:40;;;;;;;6.40;5.47;;;;;;;9.95;100.00;102440.63;4987334;28;20332;-66
2024/01/30 10:08:08;;;;;;;8.45;6.25;;;;;;;9.95;100.00;102445.81;4986211;28;20038;-66
2024/01/30 10:10:33;;;;;;;8.77;5.50;;;;;;;9.98;100.00;102440.84;4985871;28;20430;-66
2024/01/30 10:12:59;;;;;;;9.27;5.93;;;;;;;9.97;100.00;102439.03;4983938;28;20026;-66
2024/01/30 10:15:25;;;;;;;8.07;5.00;;;;;;;10.00;100.00;102443.50;4985408;28;20304;-66
2024/01/30 10:17:50;;;;;;;9.45;7.00;;;;;;;9.98;100.00;102438.25;4980392;28;20444;-66
2024/01/30 10:20:17;;;;;;;9.60;6.25;;;;;;;9.96;100.00;102442.44;4985190;28;20022;-66
2024/01/30 10:22:44;;;;;;;7.68;5.85;;;;;;;10.01;100.00;102443.59;4973771;28;20034;-66
2024/01/30 10:25:09;;;;;;;10.23;6.78;;;;;;;9.99;100.00;102447.78;4976347;28;20030;-66
2024/01/30 10:27:34;;;;;;;9.55;6.25;;;;;;;10.02;100.00;102447.97;4978069;28;20034;-66
2024/01/30 10:30:00;;;;;;;8.38;5.75;;;;;;;10.00;100.00;102452.16;4982012;28;20034;-66
2024/01/30 10:32:25;;;;;;;8.18;6.72;;;;;;;10.02;100.00;102466.09;4984114;28;20026;-66
2024/01/30 10:34:50;;;;;;;9.93;6.47;;;;;;;10.03;100.00;102461.81;4983217;28;20085;-66
2024/01/30 10:37:16;;;;;;;7.10;6.25;;;;;;;10.05;100.00;102462.81;4980390;28;20145;-66
2024/01/30 10:39:43;;;;;;;9.70;6.53;;;;;;;10.09;100.00;102457.88;4985582;28;20026;-66
2024/01/30 10:42:20;;;;;;;8.85;5.78;;;;;;;10.13;100.00;102453.78;4984912;28;20038;-66
2024/01/30 10:45:08;;;;;;;8.40;6.45;;;;;;;10.18;100.00;102454.94;4978212;28;20018;-66
2024/01/30 10:47:36;;;;;;;8.45;6.38;;;;;;;10.17;100.00;102465.22;4978103;28;20081;-66
2024/01/30 10:50:03;;;;;;;7.88;6.07;;;;;;;10.15;100.00;102457.38;4967122;28;20127;-66
2024/01/30 10:52:29;;;;;;;8.93;5.75;;;;;;;10.17;100.00;102465.22;4981224;28;20085;-66
2024/01/30 10:54:55;;;;;;;9.60;6.85;;;;;;;10.19;100.00;102459.34;4981839;28;20041;-66
2024/01/30 10:57:26;;;;;;;8.40;6.05;;;;;;;10.20;100.00;102455.03;4987837;28;20030;-66
2024/01/30 10:59:55;;;;;;;9.18;7.07;;;;;;;10.25;100.00;102457.94;4982083;28;20057;-66
2024/01/30 11:02:23;;;;;;;10.27;6.25;;;;;;;10.25;100.00;102466.59;4980072;28;20088;-66
2024/01/30 11:04:49;;;;;;;9.48;6.68;;;;;;;10.28;100.00;102468.47;4983414;28;20061;-66
2024/01/30 11:07:20;;;;;;;10.80;7.45;;;;;;;10.33;100.00;102461.84;4988275;28;20502;-66
2024/01/30 11:10:08;;;;;;;11.20;7.32;;;;;;;10.38;100.00;102469.91;4974199;28;20022;-66
2024/01/30 11:12:40;;;;;;;11.23;7.13;;;;;;;10.40;100.00;102465.69;4974680;28;20467;-66
2024/01/30 11:15:15;;;;;;;11.73;7.70;;;;;;;10.38;100.00;102469.91;4986868;28;20022;-66
2024/01/30 11:17:51;;;;;;;9.48;7.07;;;;;;;10.34;100.00;102463.66;4981220;28;20033;-66